createdAt,value
2023-03-14T00:01:58.473Z,85.03
2023-03-14T00:04:30.839Z,85.32
2023-03-14T00:07:03.059Z,85.40
2023-03-14T00:09:35.471Z,85.05
2023-03-14T00:12:09.011Z,85.22
2023-03-14T00:14:43.659Z,84.99
2023-03-14T00:17:16.124Z,84.91
2023-03-14T00:19:48.359Z,84.77
2023-03-14T00:22:20.679Z,84.75
2023-03-14T00:24:54.038Z,84.56
2023-03-14T00:27:26.375Z,84.68
2023-03-14T00:29:58.847Z,84.62
2023-03-14T00:32:31.389Z,84.02
2023-03-14T00:35:04.137Z,84.28
2023-03-14T00:37:36.381Z,84.04
2023-03-14T00:40:12.353Z,83.85
2023-03-14T00:42:44.582Z,84.00
2023-03-14T00:45:17.040Z,83.73
2023-03-14T00:47:49.417Z,84.07
2023-03-14T00:50:21.729Z,83.91
2023-03-14T00:52:54.071Z,83.66
2023-03-14T00:55:26.468Z,83.52
2023-03-14T00:57:58.858Z,83.45
2023-03-14T01:00:31.289Z,83.26
2023-03-14T01:03:03.810Z,83.16
2023-03-14T01:05:36.392Z,83.19
2023-03-14T01:08:12.866Z,82.65
2023-03-14T01:10:45.668Z,82.78
2023-03-14T01:13:18.002Z,82.31
2023-03-14T01:15:50.311Z,82.68
2023-03-14T01:18:22.672Z,82.51
2023-03-14T01:20:55.319Z,82.37
2023-03-14T01:23:27.819Z,82.13
2023-03-14T01:26:01.145Z,81.76
2023-03-14T01:28:33.599Z,81.93
2023-03-14T01:31:09.953Z,80.97
2023-03-14T01:33:43.273Z,81.55
2023-03-14T01:36:16.161Z,81.47
2023-03-14T01:38:49.143Z,81.60
2023-03-14T01:41:24.813Z,81.44
2023-03-14T01:43:58.379Z,81.18
2023-03-14T01:46:36.157Z,81.27
2023-03-14T01:49:19.119Z,81.01
2023-03-14T01:52:01.636Z,80.42
2023-03-14T01:54:36.842Z,80.51
2023-03-14T01:57:14.389Z,79.98
2023-03-14T01:59:53.041Z,80.20
2023-03-14T02:02:28.417Z,80.43
2023-03-14T02:05:01.856Z,80.31
2023-03-14T02:07:44.146Z,80.11
2023-03-14T02:10:26.611Z,80.36
2023-03-14T02:13:02.030Z,80.08
2023-03-14T02:15:54.602Z,80.25
2023-03-14T02:18:59.218Z,78.90
2023-03-14T02:22:13.995Z,79.46
2023-03-14T02:25:01.494Z,79.49
2023-03-14T02:27:35.243Z,79.57
2023-03-14T02:30:11.960Z,79.46
2023-03-14T02:32:49.735Z,79.42
2023-03-14T02:35:26.384Z,78.93
2023-03-14T02:38:03.063Z,79.00
2023-03-14T02:40:38.716Z,79.45
2023-03-14T02:43:11.077Z,79.24
2023-03-14T02:45:48.728Z,78.99
2023-03-14T02:48:26.936Z,78.86
2023-03-14T02:51:01.336Z,78.44
2023-03-14T02:53:37.499Z,79.11
2023-03-14T02:56:13.407Z,78.82
2023-03-14T02:58:45.888Z,78.77
2023-03-14T03:01:30.377Z,78.72
2023-03-14T03:04:02.719Z,78.40
2023-03-14T03:06:35.134Z,78.40
2023-03-14T03:09:07.936Z,78.50
2023-03-14T03:11:41.300Z,78.50
2023-03-14T03:14:15.367Z,78.39
2023-03-14T03:16:47.685Z,78.53
2023-03-14T03:19:20.178Z,78.05
2023-03-14T03:21:53.927Z,77.61
2023-03-14T03:24:26.479Z,77.19
2023-03-14T03:27:01.330Z,77.21
2023-03-14T03:29:33.840Z,77.10
2023-03-14T03:32:06.423Z,76.97
2023-03-14T03:34:38.869Z,77.06
2023-03-14T03:37:11.999Z,77.10
2023-03-14T03:39:46.255Z,76.80
2023-03-14T03:42:19.063Z,77.22
2023-03-14T03:44:52.026Z,76.37
2023-03-14T03:47:24.540Z,76.89
2023-03-14T03:49:57.101Z,76.83
2023-03-14T03:52:29.527Z,76.88
2023-03-14T03:55:02.054Z,76.43
2023-03-14T03:57:34.632Z,76.59
2023-03-14T04:00:10.242Z,76.64
2023-03-14T04:02:51.362Z,76.93
2023-03-14T04:05:25.012Z,76.65
2023-03-14T04:08:04.191Z,76.36
2023-03-14T04:10:39.771Z,76.48
2023-03-14T04:13:23.252Z,76.77
2023-03-14T04:15:58.610Z,76.88
2023-03-14T04:18:33.203Z,77.14
2023-03-14T04:21:06.029Z,77.10
2023-03-14T04:23:48.233Z,77.11
2023-03-14T04:26:21.628Z,77.30
2023-03-14T04:28:54.257Z,77.25
2023-03-14T04:31:28.555Z,77.34
2023-03-14T04:34:01.156Z,77.30
2023-03-14T04:36:43.721Z,77.38
2023-03-14T04:39:20.872Z,77.31
2023-03-14T04:42:01.931Z,77.55
2023-03-14T04:44:34.660Z,77.54
2023-03-14T04:47:07.435Z,77.63
2023-03-14T04:49:40.098Z,77.30
2023-03-14T04:52:14.489Z,77.48
2023-03-14T04:54:47.715Z,77.45
2023-03-14T04:57:20.312Z,77.32
2023-03-14T04:59:53.242Z,77.39
2023-03-14T05:02:45.312Z,77.35
2023-03-14T05:05:43.636Z,77.40
2023-03-14T05:08:25.302Z,77.44
2023-03-14T05:11:16.493Z,77.47
2023-03-14T05:14:21.015Z,77.32
2023-03-14T05:17:02.635Z,77.57
2023-03-14T05:19:44.065Z,77.46
2023-03-14T05:22:36.638Z,77.37
2023-03-14T05:25:21.042Z,77.24
2023-03-14T05:28:12.104Z,77.34
2023-03-14T05:30:56.218Z,76.99
2023-03-14T05:33:47.137Z,77.12
2023-03-14T05:36:40.302Z,77.06
2023-03-14T05:39:38.808Z,77.05
2023-03-14T05:42:32.262Z,77.08
2023-03-14T05:45:37.590Z,77.17
2023-03-14T05:48:19.397Z,76.85
2023-03-14T05:51:17.714Z,76.90
2023-03-14T05:54:06.868Z,77.05
2023-03-14T05:56:45.236Z,77.00
2023-03-14T05:59:36.755Z,76.89
2023-03-14T06:02:20.234Z,76.85
2023-03-14T06:04:58.419Z,76.83
2023-03-14T06:07:30.870Z,76.79
2023-03-14T06:10:03.464Z,76.79
2023-03-14T06:12:36.010Z,76.74
2023-03-14T06:15:11.291Z,76.74
2023-03-14T06:17:44.084Z,76.67
2023-03-14T06:20:17.451Z,76.62
2023-03-14T06:22:50.107Z,76.58
2023-03-14T06:25:22.909Z,76.62
2023-03-14T06:27:56.731Z,76.51
2023-03-14T06:30:29.802Z,76.57
2023-03-14T06:33:03.366Z,76.63
2023-03-14T06:35:36.087Z,76.46
2023-03-14T06:38:08.509Z,76.19
2023-03-14T06:40:41.122Z,76.30
2023-03-14T06:43:17.860Z,76.34
2023-03-14T06:45:50.767Z,76.32
2023-03-14T06:48:23.152Z,75.79
2023-03-14T06:50:56.587Z,76.13
2023-03-14T06:53:29.014Z,75.90
2023-03-14T06:56:02.764Z,75.98
2023-03-14T06:58:35.950Z,75.95
2023-03-14T07:01:23.384Z,75.72
2023-03-14T07:03:56.052Z,75.81
2023-03-14T07:06:30.853Z,75.78
2023-03-14T07:09:04.238Z,75.62
2023-03-14T07:11:37.330Z,75.43
2023-03-14T07:14:10.411Z,75.64
2023-03-14T07:16:42.836Z,75.27
2023-03-14T07:19:15.202Z,75.20
2023-03-14T07:21:47.724Z,74.84
2023-03-14T07:24:21.177Z,75.21
2023-03-14T07:29:27.104Z,74.51
2023-03-14T07:31:59.383Z,74.54
2023-03-14T07:34:31.781Z,74.83
2023-03-14T07:37:06.084Z,74.32
2023-03-14T07:39:37.761Z,74.55
2023-03-14T07:42:14.353Z,74.06
2023-03-14T07:44:59.125Z,74.45
2023-03-14T07:47:31.766Z,74.09
2023-03-14T07:50:04.102Z,74.27
2023-03-14T07:52:36.369Z,74.18
2023-03-14T07:55:14.692Z,74.07
2023-03-14T07:57:46.921Z,73.80
2023-03-14T08:00:20.539Z,73.82
2023-03-14T08:02:52.817Z,73.85
2023-03-14T08:05:25.203Z,73.88
2023-03-14T08:07:57.426Z,73.89
2023-03-14T08:10:30.283Z,74.12
2023-03-14T08:13:03.516Z,73.97
2023-03-14T08:15:35.945Z,73.91
2023-03-14T08:18:09.374Z,74.06
2023-03-14T08:20:41.680Z,73.85
2023-03-14T08:23:14.073Z,73.76
2023-03-14T08:25:46.428Z,73.94
2023-03-14T08:28:18.793Z,73.98
2023-03-14T08:30:51.132Z,73.85
2023-03-14T08:33:23.349Z,73.97
2023-03-14T08:35:57.471Z,73.86
2023-03-14T08:38:30.501Z,73.37
2023-03-14T08:41:04.959Z,73.27
2023-03-14T08:43:37.668Z,73.33
2023-03-14T08:46:10.962Z,73.18
2023-03-14T08:48:43.267Z,73.37
2023-03-14T08:51:16.919Z,73.45
2023-03-14T08:53:49.191Z,73.30
2023-03-14T08:56:21.462Z,73.34
2023-03-14T08:58:53.766Z,73.14
2023-03-14T09:01:27.388Z,73.02
2023-03-14T09:03:59.987Z,73.19
2023-03-14T09:06:32.353Z,73.11
2023-03-14T09:09:04.838Z,72.88
2023-03-14T09:11:37.295Z,73.09
2023-03-14T09:14:09.648Z,72.97
2023-03-14T09:16:42.067Z,73.03
2023-03-14T09:19:14.515Z,72.95
2023-03-14T09:21:46.813Z,72.78
2023-03-14T09:24:19.602Z,72.51
2023-03-14T09:26:51.919Z,72.73
2023-03-14T09:29:24.125Z,72.69
2023-03-14T09:31:56.489Z,72.68
2023-03-14T09:34:28.910Z,72.82
2023-03-14T09:37:01.972Z,72.83
2023-03-14T09:39:34.505Z,72.50
2023-03-14T09:42:10.343Z,72.42
2023-03-14T09:44:53.417Z,72.48
2023-03-14T09:47:27.883Z,72.28
2023-03-14T09:50:02.653Z,72.39
2023-03-14T09:52:38.270Z,72.07
2023-03-14T09:55:16.126Z,72.36
2023-03-14T09:57:50.382Z,72.20
2023-03-14T10:00:26.228Z,72.03
2023-03-14T10:03:03.406Z,72.16
2023-03-14T10:05:35.660Z,72.24
2023-03-14T10:08:08.593Z,71.92
2023-03-14T10:10:41.712Z,71.72
2023-03-14T10:13:19.330Z,71.93
2023-03-14T10:15:57.958Z,72.06
2023-03-14T10:18:35.256Z,71.80
2023-03-14T10:21:19.881Z,72.05
2023-03-14T10:23:52.258Z,71.77
2023-03-14T10:26:29.389Z,71.93
2023-03-14T10:29:11.053Z,71.62
2023-03-14T10:31:55.719Z,71.53
2023-03-14T10:34:30.829Z,71.46
2023-03-14T10:37:10.108Z,71.71
2023-03-14T10:39:47.903Z,71.50
2023-03-14T10:42:25.833Z,71.43
2023-03-14T10:45:02.561Z,71.65
2023-03-14T10:47:35.988Z,71.73
2023-03-14T10:50:32.038Z,71.49
2023-03-14T10:53:07.445Z,71.43
2023-03-14T10:55:47.191Z,71.59
2023-03-14T10:58:26.017Z,71.66
2023-03-14T11:01:13.900Z,71.77
2023-03-14T11:03:53.579Z,71.76
2023-03-14T11:06:35.318Z,71.77
2023-03-14T11:09:15.062Z,71.66
2023-03-14T11:11:50.076Z,71.75
2023-03-14T11:14:34.313Z,71.22
2023-03-14T11:17:18.415Z,71.37
2023-03-14T11:20:19.728Z,71.17
2023-03-14T11:22:59.636Z,71.38
2023-03-14T11:25:40.810Z,71.37
2023-03-14T11:28:23.801Z,71.40
2023-03-14T11:31:01.819Z,71.21
2023-03-14T11:33:39.714Z,71.12
2023-03-14T11:36:14.043Z,71.45
2023-03-14T11:38:50.516Z,71.25
2023-03-14T11:41:25.728Z,71.20
2023-03-14T11:44:00.497Z,71.23
2023-03-14T11:46:38.113Z,71.17
2023-03-14T11:49:20.850Z,71.23
2023-03-14T11:51:59.237Z,71.19
2023-03-14T11:54:37.149Z,71.12
2023-03-14T11:57:16.556Z,71.19
2023-03-14T11:59:56.235Z,71.11
2023-03-14T12:02:43.868Z,70.80
2023-03-14T12:05:47.525Z,70.82
2023-03-14T12:08:41.637Z,70.82
2023-03-14T12:11:20.544Z,70.76
2023-03-14T12:13:55.021Z,71.00
2023-03-14T12:16:44.356Z,70.93
2023-03-14T12:19:40.168Z,71.00
2023-03-14T12:22:25.037Z,70.89
2023-03-14T12:25:02.643Z,71.03
2023-03-14T12:28:05.585Z,70.93
2023-03-14T12:30:40.206Z,70.93
2023-03-14T12:33:31.872Z,70.96
2023-03-14T12:36:19.710Z,70.71
2023-03-14T12:39:00.617Z,70.76
2023-03-14T12:41:45.428Z,70.80
2023-03-14T12:44:51.873Z,70.71
2023-03-14T12:48:02.702Z,70.56
2023-03-14T12:50:46.540Z,70.55
2023-03-14T12:53:48.483Z,70.53
2023-03-14T12:56:30.127Z,70.45
2023-03-14T12:59:16.116Z,70.51
2023-03-14T13:01:58.410Z,70.61
2023-03-14T13:04:40.153Z,70.32
2023-03-14T13:07:31.363Z,70.57
2023-03-14T13:10:23.839Z,70.50
2023-03-14T13:12:59.391Z,70.53
2023-03-14T13:15:35.286Z,70.50
2023-03-14T13:18:15.615Z,70.61
2023-03-14T13:20:54.684Z,70.37
2023-03-14T13:23:29.247Z,70.10
2023-03-14T13:26:03.509Z,70.19
2023-03-14T13:28:38.542Z,70.28
2023-03-14T13:31:24.615Z,70.13
2023-03-14T13:34:12.056Z,70.00
2023-03-14T13:36:44.521Z,70.05
2023-03-14T13:39:20.843Z,69.98
2023-03-14T13:41:53.460Z,70.07
2023-03-14T13:44:29.827Z,70.22
2023-03-14T13:47:04.765Z,69.92
2023-03-14T13:49:36.705Z,70.04
2023-03-14T13:52:26.074Z,70.23
2023-03-14T13:54:59.395Z,70.13
2023-03-14T13:57:44.453Z,70.13
2023-03-14T14:00:30.942Z,70.18
2023-03-14T14:03:04.089Z,70.17
2023-03-14T14:05:41.308Z,70.30
2023-03-14T14:08:16.208Z,70.46
2023-03-14T14:10:49.564Z,70.28
2023-03-14T14:13:24.739Z,70.50
2023-03-14T14:16:01.170Z,70.33
2023-03-14T14:18:35.611Z,70.11
2023-03-14T14:21:10.181Z,70.13
2023-03-14T14:23:43.110Z,70.10
2023-03-14T14:26:20.755Z,70.07
2023-03-14T14:29:03.570Z,70.09
2023-03-14T14:31:36.286Z,69.81
2023-03-14T14:34:20.755Z,69.87
2023-03-14T14:36:53.142Z,69.83
2023-03-14T14:39:30.053Z,69.84
2023-03-14T14:42:02.483Z,69.67
2023-03-14T14:44:36.917Z,69.85
2023-03-14T14:47:14.580Z,69.91
2023-03-14T14:49:46.826Z,69.94
2023-03-14T14:52:21.025Z,69.96
2023-03-14T14:54:56.742Z,70.03
2023-03-14T14:57:31.507Z,69.90
2023-03-14T15:00:12.361Z,69.97
2023-03-14T15:02:49.354Z,69.81
2023-03-14T15:05:24.296Z,69.87
2023-03-14T15:07:55.543Z,69.73
2023-03-14T15:10:28.634Z,69.78
2023-03-14T15:13:00.931Z,69.89
2023-03-14T15:15:33.766Z,69.93
2023-03-14T15:18:12.942Z,69.83
2023-03-14T15:20:45.388Z,69.82
2023-03-14T15:23:20.658Z,69.91
2023-03-14T15:25:55.935Z,69.75
2023-03-14T15:28:30.906Z,69.63
2023-03-14T15:31:03.585Z,69.68
2023-03-14T15:33:35.855Z,69.82
2023-03-14T15:36:25.507Z,69.78
2023-03-14T15:38:59.763Z,69.79
2023-03-14T15:41:32.804Z,69.86
2023-03-14T15:44:05.213Z,69.89
2023-03-14T15:46:37.630Z,69.82
2023-03-14T15:49:10.282Z,69.81
2023-03-14T15:51:42.545Z,69.81
2023-03-14T15:54:14.765Z,69.84
2023-03-14T15:56:49.869Z,69.71
2023-03-14T15:59:22.454Z,69.91
2023-03-14T16:01:54.943Z,69.67
2023-03-14T16:04:29.536Z,69.79
2023-03-14T16:07:02.685Z,69.82
2023-03-14T16:09:35.049Z,69.85
2023-03-14T16:12:08.882Z,69.79
2023-03-14T16:14:43.817Z,69.92
2023-03-14T16:17:14.501Z,69.85
2023-03-14T16:19:47.001Z,69.82
2023-03-14T16:22:19.341Z,69.93
2023-03-14T16:24:51.584Z,69.85
2023-03-14T16:27:24.096Z,69.88
2023-03-14T16:29:56.423Z,69.93
2023-03-14T16:32:29.705Z,70.07
2023-03-14T16:35:02.385Z,69.96
2023-03-14T16:37:34.718Z,70.26
2023-03-14T16:40:15.898Z,70.17
2023-03-14T16:43:14.613Z,70.12
2023-03-14T16:45:40.913Z,70.21
2023-03-14T16:48:13.139Z,70.24
2023-03-14T16:50:45.413Z,70.30
2023-03-14T16:53:17.962Z,70.17
2023-03-14T16:55:50.753Z,70.18
2023-03-14T16:58:23.091Z,70.40
2023-03-14T17:00:57.956Z,70.30
2023-03-14T17:03:30.749Z,70.45
2023-03-14T17:06:04.032Z,70.67
2023-03-14T17:08:36.395Z,70.80
2023-03-14T17:11:09.330Z,70.45
2023-03-14T17:13:41.864Z,70.61
2023-03-14T17:16:14.811Z,70.49
2023-03-14T17:18:48.300Z,70.76
2023-03-14T17:21:20.873Z,70.72
2023-03-14T17:23:53.312Z,70.76
2023-03-14T17:26:25.581Z,70.63
2023-03-14T17:28:57.895Z,70.65
2023-03-14T17:31:30.266Z,70.90
2023-03-14T17:34:02.610Z,70.88
2023-03-14T17:36:34.898Z,70.83
2023-03-14T17:39:09.168Z,70.68
2023-03-14T17:41:41.503Z,70.87
2023-03-14T17:44:13.771Z,70.78
2023-03-14T17:46:46.109Z,70.86
2023-03-14T17:49:18.363Z,70.87
2023-03-14T17:51:50.756Z,70.93
2023-03-14T17:54:23.091Z,70.98
2023-03-14T17:56:57.228Z,70.91
2023-03-14T17:59:30.497Z,70.84
2023-03-14T18:02:02.978Z,70.93
2023-03-14T18:04:35.843Z,71.09
2023-03-14T18:07:08.209Z,70.91
2023-03-14T18:09:40.531Z,71.07
2023-03-14T18:12:13.238Z,71.21
2023-03-14T18:14:45.966Z,71.19
2023-03-14T18:17:18.351Z,71.21
2023-03-14T18:19:50.643Z,71.12
2023-03-14T18:22:23.099Z,71.20
2023-03-14T18:24:55.689Z,71.16
2023-03-14T18:27:28.038Z,71.35
2023-03-14T18:30:00.356Z,71.22
2023-03-14T18:32:33.024Z,71.20
2023-03-14T18:35:05.786Z,71.25
2023-03-14T18:37:38.123Z,71.15
2023-03-14T18:40:16.969Z,71.35
2023-03-14T18:42:49.297Z,71.22
2023-03-14T18:45:21.597Z,71.44
2023-03-14T18:47:53.877Z,71.38
2023-03-14T18:50:26.268Z,71.19
2023-03-14T18:52:58.629Z,71.40
2023-03-14T18:55:30.976Z,71.33
2023-03-14T18:58:03.242Z,71.35
2023-03-14T19:00:37.185Z,71.37
2023-03-14T19:03:09.628Z,71.38
2023-03-14T19:05:45.891Z,71.52
2023-03-14T19:08:18.243Z,71.56
2023-03-14T19:10:50.935Z,71.46
2023-03-14T19:13:23.725Z,71.32
2023-03-14T19:15:59.302Z,71.36
2023-03-14T19:18:33.681Z,71.47
2023-03-14T19:21:08.119Z,71.47
2023-03-14T19:23:42.259Z,71.55
2023-03-14T19:26:16.321Z,71.55
2023-03-14T19:28:48.613Z,71.49
2023-03-14T19:31:21.304Z,71.67
2023-03-14T19:33:54.448Z,71.62
2023-03-14T19:36:30.039Z,71.50
2023-03-14T19:39:04.472Z,71.93
2023-03-14T19:41:37.819Z,71.85
2023-03-14T19:44:10.069Z,72.03
2023-03-14T19:46:42.440Z,71.86
2023-03-14T19:49:14.802Z,71.74
2023-03-14T19:51:50.057Z,71.53
2023-03-14T19:54:23.763Z,71.65
2023-03-14T19:56:55.901Z,71.44
2023-03-14T19:59:28.204Z,71.72
2023-03-14T20:02:00.682Z,71.74
2023-03-14T20:04:33.810Z,71.59
2023-03-14T20:07:06.123Z,71.46
2023-03-14T20:09:38.388Z,71.52
2023-03-14T20:12:11.034Z,71.60
2023-03-14T20:14:43.397Z,71.54
2023-03-14T20:17:15.731Z,71.45
2023-03-14T20:19:48.324Z,71.55
2023-03-14T20:22:20.713Z,71.57
2023-03-14T20:24:53.441Z,71.57
2023-03-14T20:27:25.787Z,71.69
2023-03-14T20:30:01.938Z,71.69
2023-03-14T20:32:34.383Z,71.60
2023-03-14T20:35:09.778Z,71.50
2023-03-14T20:37:42.684Z,71.60
2023-03-14T20:40:16.606Z,71.55
2023-03-14T20:42:49.312Z,71.71
2023-03-14T20:45:21.899Z,71.69
2023-03-14T20:47:54.115Z,71.63
2023-03-14T20:50:27.003Z,71.60
2023-03-14T20:52:59.402Z,71.81
2023-03-14T20:55:31.785Z,71.77
2023-03-14T20:58:04.774Z,71.67
2023-03-14T21:00:37.213Z,71.78
2023-03-14T21:03:10.801Z,71.85
2023-03-14T21:05:46.736Z,71.81
2023-03-14T21:08:21.805Z,71.88
2023-03-14T21:10:53.461Z,71.90
2023-03-14T21:13:26.867Z,71.80
2023-03-14T21:16:02.600Z,71.81
2023-03-14T21:18:34.980Z,72.02
2023-03-14T21:21:08.651Z,71.78
2023-03-14T21:23:41.220Z,72.17
2023-03-14T21:26:13.677Z,71.93
2023-03-14T21:28:46.131Z,72.01
2023-03-14T21:31:18.609Z,71.98
2023-03-14T21:33:51.449Z,72.05
2023-03-14T21:36:23.757Z,72.07
2023-03-14T21:38:56.033Z,71.89
2023-03-14T21:41:28.444Z,71.99
2023-03-14T21:44:01.629Z,72.10
2023-03-14T21:46:36.562Z,72.17
2023-03-14T21:49:09.153Z,72.21
2023-03-14T21:51:41.666Z,72.16
2023-03-14T21:54:14.612Z,72.15
2023-03-14T21:56:47.214Z,72.24
2023-03-14T21:59:22.075Z,72.02
2023-03-14T22:01:56.379Z,72.10
2023-03-14T22:04:34.845Z,72.14
2023-03-14T22:07:09.339Z,72.16
2023-03-14T22:09:44.330Z,72.28
2023-03-14T22:12:19.608Z,72.36
2023-03-14T22:14:52.162Z,72.28
2023-03-14T22:17:24.438Z,71.66
2023-03-14T22:19:56.891Z,71.39
2023-03-14T22:22:29.232Z,71.31
2023-03-14T22:25:01.586Z,71.08
2023-03-14T22:27:33.935Z,71.06
2023-03-14T22:30:07.150Z,71.08
2023-03-14T22:32:39.841Z,70.91
2023-03-14T22:35:13.001Z,70.91
2023-03-14T22:37:45.472Z,70.82
2023-03-14T22:40:18.870Z,70.71
2023-03-14T22:42:54.747Z,70.67
2023-03-14T22:45:27.146Z,70.34
2023-03-14T22:48:00.198Z,70.57
2023-03-14T22:50:32.584Z,70.60
2023-03-14T22:53:05.397Z,70.38
2023-03-14T22:55:37.943Z,70.23
2023-03-14T22:58:10.347Z,70.31
2023-03-14T23:00:42.773Z,70.47
2023-03-14T23:03:15.348Z,70.44
2023-03-14T23:05:47.819Z,70.35
2023-03-14T23:08:20.438Z,70.44
2023-03-14T23:10:53.526Z,70.24
2023-03-14T23:13:25.773Z,70.15
2023-03-14T23:15:58.005Z,70.18
2023-03-14T23:18:30.441Z,70.25
2023-03-14T23:21:12.912Z,70.31
2023-03-14T23:23:46.683Z,70.26
2023-03-14T23:26:22.693Z,70.20
2023-03-14T23:28:56.019Z,70.10
2023-03-14T23:31:28.532Z,70.13
2023-03-14T23:34:00.952Z,70.18
2023-03-14T23:36:37.992Z,70.33
2023-03-14T23:39:11.816Z,70.27
2023-03-14T23:41:44.146Z,70.24
2023-03-14T23:44:16.580Z,70.20
2023-03-14T23:46:48.906Z,70.28
2023-03-14T23:49:21.264Z,70.25
2023-03-14T23:51:53.568Z,70.18
2023-03-14T23:54:25.982Z,70.23
2023-03-14T23:56:58.479Z,70.21
2023-03-14T23:59:31.644Z,70.16
